This is the latest recevied weather packets stored in our database for station/object DL3GCR-10. If no packets are shown the sender has not sent any weather packets the latest 10 day(s).
| Time | Temp. | Humidity | Pressure | Rain* | Wind** | Luminosity | Snow |
|---|---|---|---|---|---|---|---|
| 1777882045 | 14.44° C | 64% | 1016.9 hPa | - | - | - | - |
| 1777881144 | 13.89° C | 67% | 1016.9 hPa | - | - | - | - |
| 1777880244 | 14.44° C | 67% | 1016.8 hPa | - | - | - | - |
| 1777879344 | 14.44° C | 69% | 1016.6 hPa | - | - | - | - |
| 1777878443 | 13.89° C | 72% | 1016.6 hPa | - | - | - | - |
| 1777877543 | 13.89° C | 70% | 1016.4 hPa | - | - | - | - |
| 1777876642 | 13.33° C | 68% | 1016.4 hPa | - | - | - | - |
| 1777875742 | 13.33° C | 66% | 1016.3 hPa | - | - | - | - |
| 1777874842 | 12.78° C | 66% | 1016.4 hPa | - | - | - | - |
| 1777873942 | 12.78° C | 63% | 1016.3 hPa | - | - | - | - |
| 1777873041 | 11.67° C | 68% | 1016.5 hPa | - | - | - | - |
| 1777872141 | 11.67° C | 68% | 1016.7 hPa | - | - | - | - |
| 1777871241 | 11.11° C | 67% | 1016.5 hPa | - | - | - | - |
| 1777870341 | 11.11° C | 67% | 1016.6 hPa | - | - | - | - |
| 1777868537 | 11.11° C | 66% | 1016.5 hPa | - | - | - | - |
| 1777867636 | 10.56° C | 66% | 1016.6 hPa | - | - | - | - |
| 1777866736 | 10.56° C | 66% | 1016.5 hPa | - | - | - | - |
| 1777865836 | 10.56° C | 65% | 1016.6 hPa | - | - | - | - |
| 1777864036 | 11.11° C | 64% | 1016.7 hPa | - | - | - | - |
| 1777845135 | 16.67° C | 49% | 1016.5 hPa | - | - | - | - |
| 1777844235 | 16.67° C | 46% | 1016.6 hPa | - | - | - | - |
| 1777843335 | 17.22° C | 45% | 1016.6 hPa | - | - | - | - |
| 1777842435 | 17.22° C | 44% | 1016.6 hPa | - | - | - | - |
| 1777840634 | 17.22° C | 44% | 1016.4 hPa | - | - | - | - |
| 1777839734 | 17.22° C | 44% | 1016.5 hPa | - | - | - | - |
* Rain since midnight (hover to see other rain measurements)
** Current wind speed in m/s (hover to see current wind gust speed)